sensor_id;sensor_type;location;lat;lon;timestamp;P1;durP1;ratioP1;P2;durP2;ratioP2
60478;SDS011;46321;48.398;11.754;2022-10-26T00:02:00;7.78;;;4.15;;
60478;SDS011;46321;48.398;11.754;2022-10-26T00:04:26;6.22;;;4.18;;
60478;SDS011;46321;48.398;11.754;2022-10-26T00:06:51;7.10;;;4.65;;
60478;SDS011;46321;48.398;11.754;2022-10-26T00:09:16;9.27;;;5.32;;
60478;SDS011;46321;48.398;11.754;2022-10-26T00:11:41;7.68;;;5.03;;
60478;SDS011;46321;48.398;11.754;2022-10-26T00:14:07;7.70;;;5.18;;
60478;SDS011;46321;48.398;11.754;2022-10-26T00:16:32;8.95;;;5.00;;
60478;SDS011;46321;48.398;11.754;2022-10-26T00:18:57;7.47;;;4.95;;
60478;SDS011;46321;48.398;11.754;2022-10-26T00:21:23;10.38;;;5.38;;
60478;SDS011;46321;48.398;11.754;2022-10-26T00:23:48;9.73;;;5.13;;
60478;SDS011;46321;48.398;11.754;2022-10-26T00:26:13;9.75;;;5.15;;
60478;SDS011;46321;48.398;11.754;2022-10-26T00:28:39;7.35;;;5.57;;
60478;SDS011;46321;48.398;11.754;2022-10-26T00:31:05;7.57;;;5.13;;
60478;SDS011;46321;48.398;11.754;2022-10-26T00:33:35;10.10;;;5.10;;
60478;SDS011;46321;48.398;11.754;2022-10-26T00:36:00;8.05;;;5.20;;
60478;SDS011;46321;48.398;11.754;2022-10-26T00:38:25;8.10;;;5.10;;
60478;SDS011;46321;48.398;11.754;2022-10-26T00:40:50;11.70;;;5.35;;
60478;SDS011;46321;48.398;11.754;2022-10-26T00:45:50;8.98;;;5.00;;
60478;SDS011;46321;48.398;11.754;2022-10-26T00:48:28;8.07;;;5.32;;
60478;SDS011;46321;48.398;11.754;2022-10-26T00:50:58;10.23;;;4.97;;
60478;SDS011;46321;48.398;11.754;2022-10-26T00:53:26;9.90;;;4.97;;
60478;SDS011;46321;48.398;11.754;2022-10-26T00:55:53;9.75;;;5.38;;
60478;SDS011;46321;48.398;11.754;2022-10-26T00:58:20;12.90;;;5.10;;
60478;SDS011;46321;48.398;11.754;2022-10-26T01:00:46;10.20;;;5.55;;
60478;SDS011;46321;48.398;11.754;2022-10-26T01:03:13;9.40;;;5.72;;
60478;SDS011;46321;48.398;11.754;2022-10-26T01:05:41;8.73;;;5.00;;
60478;SDS011;46321;48.398;11.754;2022-10-26T01:08:09;9.05;;;5.10;;
60478;SDS011;46321;48.398;11.754;2022-10-26T01:10:35;9.70;;;5.47;;
60478;SDS011;46321;48.398;11.754;2022-10-26T01:13:03;11.65;;;5.43;;
60478;SDS011;46321;48.398;11.754;2022-10-26T01:15:32;9.05;;;5.28;;
60478;SDS011;46321;48.398;11.754;2022-10-26T01:18:16;8.95;;;5.45;;
60478;SDS011;46321;48.398;11.754;2022-10-26T01:20:54;11.05;;;5.82;;
60478;SDS011;46321;48.398;11.754;2022-10-26T01:29:34;9.48;;;5.65;;
60478;SDS011;46321;48.398;11.754;2022-10-26T01:32:11;11.35;;;6.25;;
60478;SDS011;46321;48.398;11.754;2022-10-26T01:34:43;10.73;;;5.70;;
60478;SDS011;46321;48.398;11.754;2022-10-26T01:37:23;8.75;;;5.78;;
60478;SDS011;46321;48.398;11.754;2022-10-26T01:39:58;9.40;;;5.88;;
60478;SDS011;46321;48.398;11.754;2022-10-26T01:42:30;10.00;;;5.95;;
60478;SDS011;46321;48.398;11.754;2022-10-26T01:44:57;9.77;;;5.75;;
60478;SDS011;46321;48.398;11.754;2022-10-26T01:47:26;10.77;;;5.90;;
60478;SDS011;46321;48.398;11.754;2022-10-26T01:49:55;12.32;;;6.72;;
60478;SDS011;46321;48.398;11.754;2022-10-26T01:52:23;10.60;;;6.25;;
60478;SDS011;46321;48.398;11.754;2022-10-26T01:54:49;8.57;;;5.90;;
60478;SDS011;46321;48.398;11.754;2022-10-26T01:57:15;10.68;;;6.40;;
60478;SDS011;46321;48.398;11.754;2022-10-26T02:13:49;7.32;;;5.63;;
60478;SDS011;46321;48.398;11.754;2022-10-26T02:19:16;8.60;;;5.07;;
60478;SDS011;46321;48.398;11.754;2022-10-26T02:24:45;11.07;;;5.88;;
60478;SDS011;46321;48.398;11.754;2022-10-26T02:27:15;12.75;;;5.88;;
60478;SDS011;46321;48.398;11.754;2022-10-26T02:29:45;9.52;;;5.78;;
60478;SDS011;46321;48.398;11.754;2022-10-26T02:32:13;8.40;;;5.72;;
60478;SDS011;46321;48.398;11.754;2022-10-26T02:34:39;9.95;;;5.63;;
60478;SDS011;46321;48.398;11.754;2022-10-26T02:37:09;8.32;;;5.57;;
60478;SDS011;46321;48.398;11.754;2022-10-26T02:39:37;7.45;;;5.60;;
60478;SDS011;46321;48.398;11.754;2022-10-26T02:42:04;10.00;;;5.70;;
60478;SDS011;46321;48.398;11.754;2022-10-26T02:44:47;8.40;;;5.93;;
60478;SDS011;46321;48.398;11.754;2022-10-26T02:47:15;9.98;;;5.57;;
60478;SDS011;46321;48.398;11.754;2022-10-26T02:49:43;8.07;;;5.28;;
60478;SDS011;46321;48.398;11.754;2022-10-26T02:52:14;8.93;;;5.75;;
60478;SDS011;46321;48.398;11.754;2022-10-26T02:54:51;11.55;;;5.20;;
60478;SDS011;46321;48.398;11.754;2022-10-26T02:57:34;7.75;;;5.43;;
60478;SDS011;46321;48.398;11.754;2022-10-26T03:00:07;10.10;;;5.70;;
60478;SDS011;46321;48.398;11.754;2022-10-26T03:02:34;10.63;;;6.00;;
60478;SDS011;46321;48.398;11.754;2022-10-26T03:05:06;11.05;;;6.00;;
60478;SDS011;46321;48.398;11.754;2022-10-26T03:07:35;12.00;;;6.55;;
60478;SDS011;46321;48.398;11.754;2022-10-26T03:10:00;12.52;;;6.03;;
60478;SDS011;46321;48.398;11.754;2022-10-26T03:12:25;11.52;;;5.65;;
60478;SDS011;46321;48.398;11.754;2022-10-26T03:14:51;10.00;;;6.10;;
60478;SDS011;46321;48.398;11.754;2022-10-26T03:17:16;8.90;;;5.72;;
60478;SDS011;46321;48.398;11.754;2022-10-26T03:19:41;12.70;;;5.90;;
60478;SDS011;46321;48.398;11.754;2022-10-26T03:22:06;8.30;;;5.63;;
60478;SDS011;46321;48.398;11.754;2022-10-26T03:24:32;9.32;;;6.53;;
60478;SDS011;46321;48.398;11.754;2022-10-26T03:26:57;10.73;;;5.97;;
60478;SDS011;46321;48.398;11.754;2022-10-26T03:29:22;12.02;;;6.55;;
60478;SDS011;46321;48.398;11.754;2022-10-26T03:31:47;8.43;;;6.00;;
60478;SDS011;46321;48.398;11.754;2022-10-26T03:34:18;10.52;;;6.25;;
60478;SDS011;46321;48.398;11.754;2022-10-26T03:36:43;9.98;;;5.75;;
60478;SDS011;46321;48.398;11.754;2022-10-26T03:39:08;9.48;;;5.80;;
60478;SDS011;46321;48.398;11.754;2022-10-26T03:41:33;15.00;;;7.30;;
60478;SDS011;46321;48.398;11.754;2022-10-26T03:43:59;12.02;;;6.70;;
60478;SDS011;46321;48.398;11.754;2022-10-26T03:46:24;12.32;;;6.78;;
60478;SDS011;46321;48.398;11.754;2022-10-26T03:48:49;12.23;;;6.47;;
60478;SDS011;46321;48.398;11.754;2022-10-26T03:51:14;10.77;;;6.18;;
60478;SDS011;46321;48.398;11.754;2022-10-26T03:53:40;9.95;;;6.18;;
60478;SDS011;46321;48.398;11.754;2022-10-26T03:56:05;9.73;;;6.07;;
60478;SDS011;46321;48.398;11.754;2022-10-26T03:58:30;8.98;;;5.90;;
60478;SDS011;46321;48.398;11.754;2022-10-26T04:00:56;7.97;;;5.57;;
60478;SDS011;46321;48.398;11.754;2022-10-26T04:03:21;8.38;;;6.05;;
60478;SDS011;46321;48.398;11.754;2022-10-26T04:05:46;10.68;;;6.10;;
60478;SDS011;46321;48.398;11.754;2022-10-26T04:08:12;10.85;;;6.03;;
60478;SDS011;46321;48.398;11.754;2022-10-26T04:10:37;13.05;;;5.93;;
60478;SDS011;46321;48.398;11.754;2022-10-26T04:13:02;10.40;;;5.90;;
60478;SDS011;46321;48.398;11.754;2022-10-26T04:15:28;10.00;;;6.35;;
60478;SDS011;46321;48.398;11.754;2022-10-26T04:17:57;8.73;;;5.60;;
60478;SDS011;46321;48.398;11.754;2022-10-26T04:20:25;10.20;;;5.40;;
60478;SDS011;46321;48.398;11.754;2022-10-26T04:22:58;7.68;;;5.38;;
60478;SDS011;46321;48.398;11.754;2022-10-26T04:25:24;7.85;;;5.18;;
60478;SDS011;46321;48.398;11.754;2022-10-26T04:27:50;8.00;;;5.40;;
60478;SDS011;46321;48.398;11.754;2022-10-26T04:30:15;9.63;;;5.20;;
60478;SDS011;46321;48.398;11.754;2022-10-26T04:32:40;9.60;;;5.43;;
60478;SDS011;46321;48.398;11.754;2022-10-26T04:35:06;11.82;;;5.55;;
60478;SDS011;46321;48.398;11.754;2022-10-26T04:37:32;9.63;;;5.40;;
60478;SDS011;46321;48.398;11.754;2022-10-26T04:39:57;9.35;;;5.20;;
60478;SDS011;46321;48.398;11.754;2022-10-26T04:42:23;8.20;;;5.50;;
60478;SDS011;46321;48.398;11.754;2022-10-26T04:44:48;8.38;;;4.85;;
60478;SDS011;46321;48.398;11.754;2022-10-26T04:47:13;7.55;;;4.63;;
60478;SDS011;46321;48.398;11.754;2022-10-26T04:49:38;7.65;;;4.82;;
60478;SDS011;46321;48.398;11.754;2022-10-26T04:52:04;7.43;;;5.22;;
60478;SDS011;46321;48.398;11.754;2022-10-26T04:54:30;8.27;;;5.25;;
60478;SDS011;46321;48.398;11.754;2022-10-26T04:56:55;8.88;;;5.32;;
60478;SDS011;46321;48.398;11.754;2022-10-26T04:59:20;7.68;;;5.10;;
60478;SDS011;46321;48.398;11.754;2022-10-26T05:01:46;7.50;;;4.90;;
60478;SDS011;46321;48.398;11.754;2022-10-26T05:04:11;9.80;;;5.82;;
60478;SDS011;46321;48.398;11.754;2022-10-26T05:06:36;9.50;;;5.03;;
60478;SDS011;46321;48.398;11.754;2022-10-26T05:09:02;8.05;;;5.47;;
60478;SDS011;46321;48.398;11.754;2022-10-26T05:11:27;8.50;;;5.15;;
60478;SDS011;46321;48.398;11.754;2022-10-26T05:13:52;8.77;;;5.75;;
60478;SDS011;46321;48.398;11.754;2022-10-26T05:16:18;7.28;;;5.32;;
60478;SDS011;46321;48.398;11.754;2022-10-26T05:18:43;9.20;;;5.40;;
60478;SDS011;46321;48.398;11.754;2022-10-26T05:21:12;6.30;;;4.88;;
60478;SDS011;46321;48.398;11.754;2022-10-26T05:23:43;9.63;;;5.13;;
60478;SDS011;46321;48.398;11.754;2022-10-26T05:26:08;7.20;;;5.13;;
60478;SDS011;46321;48.398;11.754;2022-10-26T05:28:33;8.35;;;5.07;;
60478;SDS011;46321;48.398;11.754;2022-10-26T05:30:59;7.00;;;5.35;;
60478;SDS011;46321;48.398;11.754;2022-10-26T05:33:24;8.02;;;5.57;;
60478;SDS011;46321;48.398;11.754;2022-10-26T05:35:52;11.45;;;5.78;;
60478;SDS011;46321;48.398;11.754;2022-10-26T05:38:18;8.55;;;5.65;;
60478;SDS011;46321;48.398;11.754;2022-10-26T05:40:50;11.10;;;5.68;;
60478;SDS011;46321;48.398;11.754;2022-10-26T05:43:17;9.30;;;5.03;;
60478;SDS011;46321;48.398;11.754;2022-10-26T05:45:43;9.32;;;5.18;;
60478;SDS011;46321;48.398;11.754;2022-10-26T05:48:09;8.38;;;4.95;;
60478;SDS011;46321;48.398;11.754;2022-10-26T05:50:34;7.88;;;5.45;;
60478;SDS011;46321;48.398;11.754;2022-10-26T05:53:00;8.55;;;5.25;;
60478;SDS011;46321;48.398;11.754;2022-10-26T05:55:25;9.63;;;5.18;;
60478;SDS011;46321;48.398;11.754;2022-10-26T05:57:51;10.57;;;5.75;;
60478;SDS011;46321;48.398;11.754;2022-10-26T06:00:18;10.63;;;5.70;;
60478;SDS011;46321;48.398;11.754;2022-10-26T06:03:00;11.52;;;5.80;;
60478;SDS011;46321;48.398;11.754;2022-10-26T06:06:00;9.20;;;5.55;;
60478;SDS011;46321;48.398;11.754;2022-10-26T06:08:25;10.93;;;5.72;;
60478;SDS011;46321;48.398;11.754;2022-10-26T06:10:52;9.75;;;5.97;;
60478;SDS011;46321;48.398;11.754;2022-10-26T06:13:19;8.85;;;5.75;;
60478;SDS011;46321;48.398;11.754;2022-10-26T06:21:27;10.27;;;5.03;;
60478;SDS011;46321;48.398;11.754;2022-10-26T06:24:10;12.35;;;5.57;;
60478;SDS011;46321;48.398;11.754;2022-10-26T06:32:13;20.23;;;10.85;;
60478;SDS011;46321;48.398;11.754;2022-10-26T06:34:42;15.30;;;6.78;;
60478;SDS011;46321;48.398;11.754;2022-10-26T06:37:10;9.25;;;6.28;;
60478;SDS011;46321;48.398;11.754;2022-10-26T06:39:38;8.75;;;5.68;;
60478;SDS011;46321;48.398;11.754;2022-10-26T06:42:07;9.63;;;5.75;;
60478;SDS011;46321;48.398;11.754;2022-10-26T06:44:34;11.25;;;5.70;;
60478;SDS011;46321;48.398;11.754;2022-10-26T06:47:08;8.23;;;5.63;;
60478;SDS011;46321;48.398;11.754;2022-10-26T06:49:48;9.13;;;6.15;;
60478;SDS011;46321;48.398;11.754;2022-10-26T06:52:40;8.82;;;6.15;;
60478;SDS011;46321;48.398;11.754;2022-10-26T06:55:14;9.02;;;6.13;;
60478;SDS011;46321;48.398;11.754;2022-10-26T06:57:40;11.75;;;6.60;;
60478;SDS011;46321;48.398;11.754;2022-10-26T07:02:33;11.60;;;7.28;;
60478;SDS011;46321;48.398;11.754;2022-10-26T07:04:58;12.75;;;6.97;;
60478;SDS011;46321;48.398;11.754;2022-10-26T07:07:24;14.35;;;7.78;;
60478;SDS011;46321;48.398;11.754;2022-10-26T07:09:53;13.07;;;7.40;;
60478;SDS011;46321;48.398;11.754;2022-10-26T07:12:18;13.10;;;7.97;;
60478;SDS011;46321;48.398;11.754;2022-10-26T07:14:43;12.25;;;6.82;;
60478;SDS011;46321;48.398;11.754;2022-10-26T07:17:09;10.68;;;6.75;;
60478;SDS011;46321;48.398;11.754;2022-10-26T07:19:35;10.32;;;6.32;;
60478;SDS011;46321;48.398;11.754;2022-10-26T07:22:00;8.80;;;5.65;;
60478;SDS011;46321;48.398;11.754;2022-10-26T07:24:26;8.65;;;5.93;;
60478;SDS011;46321;48.398;11.754;2022-10-26T07:26:55;12.95;;;7.10;;
60478;SDS011;46321;48.398;11.754;2022-10-26T07:29:22;9.95;;;6.40;;
60478;SDS011;46321;48.398;11.754;2022-10-26T07:31:48;12.80;;;6.78;;
60478;SDS011;46321;48.398;11.754;2022-10-26T07:34:13;11.80;;;6.72;;
60478;SDS011;46321;48.398;11.754;2022-10-26T07:36:39;14.02;;;6.53;;
60478;SDS011;46321;48.398;11.754;2022-10-26T07:39:05;10.00;;;6.47;;
60478;SDS011;46321;48.398;11.754;2022-10-26T07:41:30;8.70;;;6.10;;
60478;SDS011;46321;48.398;11.754;2022-10-26T07:43:56;8.63;;;6.05;;
60478;SDS011;46321;48.398;11.754;2022-10-26T07:46:22;11.57;;;6.30;;
60478;SDS011;46321;48.398;11.754;2022-10-26T07:48:47;8.63;;;5.20;;
60478;SDS011;46321;48.398;11.754;2022-10-26T07:51:12;9.85;;;5.65;;
60478;SDS011;46321;48.398;11.754;2022-10-26T07:53:38;8.52;;;4.88;;
60478;SDS011;46321;48.398;11.754;2022-10-26T07:56:03;9.48;;;4.85;;
60478;SDS011;46321;48.398;11.754;2022-10-26T07:58:29;8.05;;;4.90;;
60478;SDS011;46321;48.398;11.754;2022-10-26T08:00:54;7.38;;;4.68;;
60478;SDS011;46321;48.398;11.754;2022-10-26T08:03:20;8.05;;;4.47;;
60478;SDS011;46321;48.398;11.754;2022-10-26T08:05:47;10.43;;;4.88;;
60478;SDS011;46321;48.398;11.754;2022-10-26T08:08:15;7.72;;;4.40;;
60478;SDS011;46321;48.398;11.754;2022-10-26T08:10:42;5.40;;;3.67;;
60478;SDS011;46321;48.398;11.754;2022-10-26T08:13:08;5.68;;;3.97;;
60478;SDS011;46321;48.398;11.754;2022-10-26T08:15:33;5.25;;;3.30;;
60478;SDS011;46321;48.398;11.754;2022-10-26T08:17:58;9.85;;;4.22;;
60478;SDS011;46321;48.398;11.754;2022-10-26T08:20:24;6.35;;;4.30;;
60478;SDS011;46321;48.398;11.754;2022-10-26T08:22:49;6.97;;;4.90;;
60478;SDS011;46321;48.398;11.754;2022-10-26T08:25:14;15.90;;;9.35;;
60478;SDS011;46321;48.398;11.754;2022-10-26T08:27:40;15.75;;;8.02;;
60478;SDS011;46321;48.398;11.754;2022-10-26T08:30:05;6.63;;;4.63;;
60478;SDS011;46321;48.398;11.754;2022-10-26T08:32:31;7.25;;;4.78;;
60478;SDS011;46321;48.398;11.754;2022-10-26T08:34:56;5.70;;;3.08;;
60478;SDS011;46321;48.398;11.754;2022-10-26T08:37:21;3.90;;;3.00;;
60478;SDS011;46321;48.398;11.754;2022-10-26T08:39:47;5.68;;;3.85;;
60478;SDS011;46321;48.398;11.754;2022-10-26T08:44:50;8.90;;;3.50;;
60478;SDS011;46321;48.398;11.754;2022-10-26T08:47:24;7.23;;;3.73;;
60478;SDS011;46321;48.398;11.754;2022-10-26T08:52:46;3.97;;;3.00;;
60478;SDS011;46321;48.398;11.754;2022-10-26T08:55:18;4.45;;;2.83;;
60478;SDS011;46321;48.398;11.754;2022-10-26T08:57:49;6.35;;;2.72;;
60478;SDS011;46321;48.398;11.754;2022-10-26T09:00:20;5.30;;;2.78;;
60478;SDS011;46321;48.398;11.754;2022-10-26T09:02:48;8.38;;;3.03;;
60478;SDS011;46321;48.398;11.754;2022-10-26T09:05:16;2.50;;;2.10;;
60478;SDS011;46321;48.398;11.754;2022-10-26T09:10:38;3.90;;;2.05;;
60478;SDS011;46321;48.398;11.754;2022-10-26T09:16:05;6.28;;;2.05;;
60478;SDS011;46321;48.398;11.754;2022-10-26T09:27:33;3.35;;;1.30;;
60478;SDS011;46321;48.398;11.754;2022-10-26T09:29:41;3.22;;;1.65;;
60478;SDS011;46321;48.398;11.754;2022-10-26T09:32:20;2.33;;;1.50;;
60478;SDS011;46321;48.398;11.754;2022-10-26T09:34:54;4.40;;;1.40;;
60478;SDS011;46321;48.398;11.754;2022-10-26T09:37:24;2.90;;;1.50;;
60478;SDS011;46321;48.398;11.754;2022-10-26T09:43:00;3.33;;;1.20;;
60478;SDS011;46321;48.398;11.754;2022-10-26T09:45:31;3.97;;;1.10;;
60478;SDS011;46321;48.398;11.754;2022-10-26T09:50:51;1.48;;;1.25;;
60478;SDS011;46321;48.398;11.754;2022-10-26T09:53:16;3.20;;;1.25;;
60478;SDS011;46321;48.398;11.754;2022-10-26T09:55:43;5.35;;;1.50;;
60478;SDS011;46321;48.398;11.754;2022-10-26T09:58:14;2.03;;;1.27;;
60478;SDS011;46321;48.398;11.754;2022-10-26T10:00:44;3.53;;;1.40;;
60478;SDS011;46321;48.398;11.754;2022-10-26T10:03:18;2.63;;;1.30;;
60478;SDS011;46321;48.398;11.754;2022-10-26T10:05:44;3.45;;;1.27;;
60478;SDS011;46321;48.398;11.754;2022-10-26T10:08:14;2.60;;;1.37;;
60478;SDS011;46321;48.398;11.754;2022-10-26T10:11:01;2.45;;;1.50;;
60478;SDS011;46321;48.398;11.754;2022-10-26T10:13:45;3.80;;;1.60;;
60478;SDS011;46321;48.398;11.754;2022-10-26T10:16:11;3.83;;;1.42;;
60478;SDS011;46321;48.398;11.754;2022-10-26T10:18:50;3.13;;;1.30;;
60478;SDS011;46321;48.398;11.754;2022-10-26T10:23:50;3.40;;;1.50;;
60478;SDS011;46321;48.398;11.754;2022-10-26T10:26:16;2.97;;;1.50;;
60478;SDS011;46321;48.398;11.754;2022-10-26T10:28:42;5.40;;;1.50;;
60478;SDS011;46321;48.398;11.754;2022-10-26T10:31:20;3.42;;;1.45;;
60478;SDS011;46321;48.398;11.754;2022-10-26T10:33:50;5.25;;;1.70;;
60478;SDS011;46321;48.398;11.754;2022-10-26T10:36:17;4.22;;;1.52;;
60478;SDS011;46321;48.398;11.754;2022-10-26T10:38:46;2.10;;;1.38;;
60478;SDS011;46321;48.398;11.754;2022-10-26T10:41:34;4.90;;;1.30;;
60478;SDS011;46321;48.398;11.754;2022-10-26T10:46:44;4.30;;;1.52;;
60478;SDS011;46321;48.398;11.754;2022-10-26T10:49:17;6.80;;;1.65;;
60478;SDS011;46321;48.398;11.754;2022-10-26T10:51:47;2.78;;;1.67;;
60478;SDS011;46321;48.398;11.754;2022-10-26T10:54:19;3.58;;;1.70;;
60478;SDS011;46321;48.398;11.754;2022-10-26T10:56:54;12.02;;;5.68;;
60478;SDS011;46321;48.398;11.754;2022-10-26T10:59:29;4.45;;;2.47;;
60478;SDS011;46321;48.398;11.754;2022-10-26T11:02:16;8.18;;;4.25;;
60478;SDS011;46321;48.398;11.754;2022-10-26T11:07:48;3.33;;;1.38;;
60478;SDS011;46321;48.398;11.754;2022-10-26T11:10:18;3.65;;;1.40;;
60478;SDS011;46321;48.398;11.754;2022-10-26T11:12:51;3.58;;;1.40;;
60478;SDS011;46321;48.398;11.754;2022-10-26T11:15:22;2.13;;;1.30;;
60478;SDS011;46321;48.398;11.754;2022-10-26T11:20:46;4.93;;;1.50;;
60478;SDS011;46321;48.398;11.754;2022-10-26T11:23:20;2.90;;;1.60;;
60478;SDS011;46321;48.398;11.754;2022-10-26T11:25:55;5.97;;;1.25;;
60478;SDS011;46321;48.398;11.754;2022-10-26T11:28:37;3.90;;;1.17;;
60478;SDS011;46321;48.398;11.754;2022-10-26T11:31:16;3.58;;;1.27;;
60478;SDS011;46321;48.398;11.754;2022-10-26T11:34:00;3.90;;;1.50;;
60478;SDS011;46321;48.398;11.754;2022-10-26T11:36:32;3.80;;;1.20;;
60478;SDS011;46321;48.398;11.754;2022-10-26T11:39:19;2.92;;;1.30;;
60478;SDS011;46321;48.398;11.754;2022-10-26T11:42:35;2.10;;;1.35;;
60478;SDS011;46321;48.398;11.754;2022-10-26T11:45:00;4.05;;;1.95;;
60478;SDS011;46321;48.398;11.754;2022-10-26T11:48:23;3.20;;;1.13;;
60478;SDS011;46321;48.398;11.754;2022-10-26T11:50:42;2.67;;;1.17;;
60478;SDS011;46321;48.398;11.754;2022-10-26T11:53:12;2.10;;;1.40;;
60478;SDS011;46321;48.398;11.754;2022-10-26T11:55:40;3.80;;;1.48;;
60478;SDS011;46321;48.398;11.754;2022-10-26T11:58:09;1.88;;;1.20;;
60478;SDS011;46321;48.398;11.754;2022-10-26T12:00:40;6.32;;;1.40;;
60478;SDS011;46321;48.398;11.754;2022-10-26T12:03:12;5.15;;;1.52;;
60478;SDS011;46321;48.398;11.754;2022-10-26T12:05:49;8.27;;;3.50;;
60478;SDS011;46321;48.398;11.754;2022-10-26T12:08:25;22.75;;;12.68;;
60478;SDS011;46321;48.398;11.754;2022-10-26T12:10:57;9.05;;;3.95;;
60478;SDS011;46321;48.398;11.754;2022-10-26T12:13:31;2.28;;;1.48;;
60478;SDS011;46321;48.398;11.754;2022-10-26T12:19:04;3.70;;;1.35;;
60478;SDS011;46321;48.398;11.754;2022-10-26T12:21:40;4.57;;;1.40;;
60478;SDS011;46321;48.398;11.754;2022-10-26T12:26:51;6.25;;;1.80;;
60478;SDS011;46321;48.398;11.754;2022-10-26T12:29:30;7.32;;;1.50;;
60478;SDS011;46321;48.398;11.754;2022-10-26T12:32:00;2.50;;;1.45;;
60478;SDS011;46321;48.398;11.754;2022-10-26T12:39:27;2.50;;;1.40;;
60478;SDS011;46321;48.398;11.754;2022-10-26T12:41:58;4.75;;;1.30;;
60478;SDS011;46321;48.398;11.754;2022-10-26T12:52:31;4.05;;;1.30;;
60478;SDS011;46321;48.398;11.754;2022-10-26T12:55:46;5.47;;;1.40;;
60478;SDS011;46321;48.398;11.754;2022-10-26T12:58:53;2.28;;;1.10;;
60478;SDS011;46321;48.398;11.754;2022-10-26T13:01:23;9.50;;;1.80;;
60478;SDS011;46321;48.398;11.754;2022-10-26T13:04:10;2.92;;;1.40;;
60478;SDS011;46321;48.398;11.754;2022-10-26T13:09:23;4.75;;;1.58;;
60478;SDS011;46321;48.398;11.754;2022-10-26T13:11:53;7.18;;;1.60;;
60478;SDS011;46321;48.398;11.754;2022-10-26T13:14:21;4.53;;;1.60;;
60478;SDS011;46321;48.398;11.754;2022-10-26T13:16:49;3.28;;;1.50;;
60478;SDS011;46321;48.398;11.754;2022-10-26T13:19:31;5.55;;;1.98;;
60478;SDS011;46321;48.398;11.754;2022-10-26T13:22:00;3.65;;;1.58;;
60478;SDS011;46321;48.398;11.754;2022-10-26T13:24:27;3.13;;;1.88;;
60478;SDS011;46321;48.398;11.754;2022-10-26T13:29:28;2.78;;;1.20;;
60478;SDS011;46321;48.398;11.754;2022-10-26T13:31:54;5.22;;;1.65;;
60478;SDS011;46321;48.398;11.754;2022-10-26T13:34:21;4.43;;;1.42;;
60478;SDS011;46321;48.398;11.754;2022-10-26T13:37:04;2.80;;;1.33;;
60478;SDS011;46321;48.398;11.754;2022-10-26T13:39:37;8.00;;;1.60;;
60478;SDS011;46321;48.398;11.754;2022-10-26T13:42:06;6.45;;;2.15;;
60478;SDS011;46321;48.398;11.754;2022-10-26T13:44:38;3.05;;;1.30;;
60478;SDS011;46321;48.398;11.754;2022-10-26T13:47:24;3.85;;;1.70;;
60478;SDS011;46321;48.398;11.754;2022-10-26T13:49:53;4.90;;;1.30;;
60478;SDS011;46321;48.398;11.754;2022-10-26T13:52:26;3.47;;;1.70;;
60478;SDS011;46321;48.398;11.754;2022-10-26T13:54:57;3.53;;;1.38;;
60478;SDS011;46321;48.398;11.754;2022-10-26T13:57:42;8.93;;;1.50;;
60478;SDS011;46321;48.398;11.754;2022-10-26T14:02:43;6.47;;;1.73;;
60478;SDS011;46321;48.398;11.754;2022-10-26T14:05:09;4.45;;;1.75;;
60478;SDS011;46321;48.398;11.754;2022-10-26T14:07:39;3.88;;;1.73;;
60478;SDS011;46321;48.398;11.754;2022-10-26T14:10:29;10.18;;;1.90;;
60478;SDS011;46321;48.398;11.754;2022-10-26T14:13:01;7.28;;;1.50;;
60478;SDS011;46321;48.398;11.754;2022-10-26T14:15:31;3.95;;;1.33;;
60478;SDS011;46321;48.398;11.754;2022-10-26T14:17:58;6.97;;;1.70;;
60478;SDS011;46321;48.398;11.754;2022-10-26T14:20:26;3.67;;;1.50;;
60478;SDS011;46321;48.398;11.754;2022-10-26T14:22:53;5.65;;;1.90;;
60478;SDS011;46321;48.398;11.754;2022-10-26T14:25:26;5.00;;;1.70;;
60478;SDS011;46321;48.398;11.754;2022-10-26T14:27:54;4.32;;;1.80;;
60478;SDS011;46321;48.398;11.754;2022-10-26T14:30:30;4.07;;;1.70;;
60478;SDS011;46321;48.398;11.754;2022-10-26T14:32:57;3.30;;;1.65;;
60478;SDS011;46321;48.398;11.754;2022-10-26T14:35:24;5.32;;;1.90;;
60478;SDS011;46321;48.398;11.754;2022-10-26T14:42:54;13.30;;;8.05;;
60478;SDS011;46321;48.398;11.754;2022-10-26T14:47:55;8.30;;;2.20;;
60478;SDS011;46321;48.398;11.754;2022-10-26T14:50:22;4.43;;;1.70;;
60478;SDS011;46321;48.398;11.754;2022-10-26T14:52:49;8.85;;;1.90;;
60478;SDS011;46321;48.398;11.754;2022-10-26T14:55:16;5.57;;;1.67;;
60478;SDS011;46321;48.398;11.754;2022-10-26T14:57:43;3.03;;;1.48;;
60478;SDS011;46321;48.398;11.754;2022-10-26T15:00:23;3.63;;;1.85;;
60478;SDS011;46321;48.398;11.754;2022-10-26T15:02:50;10.18;;;2.08;;
60478;SDS011;46321;48.398;11.754;2022-10-26T15:07:48;5.07;;;2.00;;
60478;SDS011;46321;48.398;11.754;2022-10-26T15:11:02;5.45;;;1.70;;
60478;SDS011;46321;48.398;11.754;2022-10-26T15:13:09;5.57;;;1.63;;
60478;SDS011;46321;48.398;11.754;2022-10-26T15:15:56;3.05;;;1.90;;
60478;SDS011;46321;48.398;11.754;2022-10-26T15:18:32;3.33;;;1.65;;
60478;SDS011;46321;48.398;11.754;2022-10-26T15:20:59;4.18;;;1.88;;
60478;SDS011;46321;48.398;11.754;2022-10-26T15:23:24;6.47;;;2.17;;
60478;SDS011;46321;48.398;11.754;2022-10-26T15:25:54;3.67;;;1.90;;
60478;SDS011;46321;48.398;11.754;2022-10-26T15:28:30;5.38;;;2.10;;
60478;SDS011;46321;48.398;11.754;2022-10-26T15:33:39;3.83;;;1.90;;
60478;SDS011;46321;48.398;11.754;2022-10-26T15:38:31;5.13;;;1.90;;
60478;SDS011;46321;48.398;11.754;2022-10-26T15:40:56;7.20;;;2.20;;
60478;SDS011;46321;48.398;11.754;2022-10-26T15:43:22;3.90;;;2.22;;
60478;SDS011;46321;48.398;11.754;2022-10-26T15:45:47;3.47;;;2.30;;
60478;SDS011;46321;48.398;11.754;2022-10-26T15:48:17;3.85;;;2.22;;
60478;SDS011;46321;48.398;11.754;2022-10-26T15:50:46;10.05;;;2.40;;
60478;SDS011;46321;48.398;11.754;2022-10-26T15:53:17;6.15;;;2.58;;
60478;SDS011;46321;48.398;11.754;2022-10-26T15:55:44;18.65;;;10.65;;
60478;SDS011;46321;48.398;11.754;2022-10-26T15:58:10;60.72;;;35.90;;
60478;SDS011;46321;48.398;11.754;2022-10-26T16:00:35;28.25;;;15.88;;
60478;SDS011;46321;48.398;11.754;2022-10-26T16:03:01;11.32;;;7.10;;
60478;SDS011;46321;48.398;11.754;2022-10-26T16:05:27;7.20;;;3.05;;
60478;SDS011;46321;48.398;11.754;2022-10-26T16:07:52;6.35;;;2.58;;
60478;SDS011;46321;48.398;11.754;2022-10-26T16:10:21;5.93;;;2.47;;
60478;SDS011;46321;48.398;11.754;2022-10-26T16:12:48;6.43;;;2.85;;
60478;SDS011;46321;48.398;11.754;2022-10-26T16:15:18;7.22;;;2.67;;
60478;SDS011;46321;48.398;11.754;2022-10-26T16:17:45;6.60;;;2.55;;
60478;SDS011;46321;48.398;11.754;2022-10-26T16:20:15;4.53;;;2.40;;
60478;SDS011;46321;48.398;11.754;2022-10-26T16:22:49;5.93;;;2.67;;
60478;SDS011;46321;48.398;11.754;2022-10-26T16:25:17;7.78;;;2.45;;
60478;SDS011;46321;48.398;11.754;2022-10-26T16:27:47;6.78;;;2.53;;
60478;SDS011;46321;48.398;11.754;2022-10-26T16:30:13;9.02;;;2.65;;
60478;SDS011;46321;48.398;11.754;2022-10-26T16:32:39;3.63;;;2.22;;
60478;SDS011;46321;48.398;11.754;2022-10-26T16:35:05;6.85;;;2.92;;
60478;SDS011;46321;48.398;11.754;2022-10-26T16:37:30;9.85;;;2.85;;
60478;SDS011;46321;48.398;11.754;2022-10-26T16:39:56;9.32;;;2.90;;
60478;SDS011;46321;48.398;11.754;2022-10-26T16:42:22;9.88;;;3.58;;
60478;SDS011;46321;48.398;11.754;2022-10-26T16:44:48;6.50;;;3.30;;
60478;SDS011;46321;48.398;11.754;2022-10-26T16:47:13;6.72;;;3.88;;